createdAt,value
2022-11-22T00:02:19.424Z,98938.00
2022-11-22T00:07:24.667Z,98926.56
2022-11-22T00:12:27.863Z,98915.19
2022-11-22T00:17:33.504Z,98915.56
2022-11-22T00:22:42.768Z,98909.38
2022-11-22T00:27:47.529Z,98913.63
2022-11-22T00:32:52.270Z,98893.88
2022-11-22T00:37:55.239Z,98893.69
2022-11-22T00:42:58.631Z,98883.25
2022-11-22T00:48:03.366Z,98875.44
2022-11-22T00:53:06.267Z,98880.25
2022-11-22T00:58:09.581Z,98866.22
2022-11-22T01:03:14.665Z,98852.38
2022-11-22T01:08:17.900Z,98856.91
2022-11-22T01:13:21.248Z,98848.41
2022-11-22T01:18:26.341Z,98839.75
2022-11-22T01:23:29.512Z,98835.69
2022-11-22T01:28:32.969Z,98819.03
2022-11-22T01:33:37.701Z,98816.91
2022-11-22T01:38:40.872Z,98814.06
2022-11-22T01:43:44.179Z,98817.88
2022-11-22T01:48:55.537Z,98810.34
2022-11-22T01:54:03.427Z,98800.28
2022-11-22T01:59:11.050Z,98793.22
2022-11-22T02:04:18.818Z,98786.69
2022-11-22T02:09:22.393Z,98779.28
2022-11-22T02:14:28.097Z,98765.75
2022-11-22T02:19:41.733Z,98757.81
2022-11-22T02:24:51.306Z,98748.56
2022-11-22T02:29:55.875Z,98747.75
2022-11-22T02:34:58.937Z,98731.22
2022-11-22T02:40:08.359Z,98713.84
2022-11-22T02:45:13.191Z,98717.53
2022-11-22T02:50:16.350Z,98698.41
2022-11-22T02:55:19.693Z,98697.53
2022-11-22T03:00:24.787Z,98685.03
2022-11-22T03:05:28.083Z,98681.44
2022-11-22T03:10:31.752Z,98675.22
2022-11-22T03:15:36.404Z,98679.25
2022-11-22T03:20:39.600Z,98666.94
2022-11-22T03:25:44.125Z,98656.31
2022-11-22T03:30:48.757Z,98644.38
2022-11-22T03:35:52.213Z,98621.25
2022-11-22T03:40:55.669Z,98631.81
2022-11-22T03:46:00.361Z,98626.16
2022-11-22T03:51:06.877Z,98613.44
2022-11-22T03:56:10.523Z,98613.28
2022-11-22T04:01:16.878Z,98608.69
2022-11-22T04:06:20.199Z,98609.03
2022-11-22T04:11:23.772Z,98599.91
2022-11-22T04:16:28.342Z,98597.50
2022-11-22T04:21:37.567Z,98592.16
2022-11-22T04:26:40.837Z,98592.75
2022-11-22T04:32:03.200Z,98570.63
2022-11-22T04:37:07.354Z,98580.16
2022-11-22T04:42:28.250Z,98571.81
2022-11-22T04:48:01.654Z,98561.03
2022-11-22T04:53:05.262Z,98554.50
2022-11-22T04:58:08.783Z,98546.66
2022-11-22T05:03:13.753Z,98535.84
2022-11-22T05:08:17.057Z,98530.72
2022-11-22T05:13:21.466Z,98527.63
2022-11-22T05:18:27.077Z,98514.00
2022-11-22T05:23:47.729Z,98516.38
2022-11-22T05:28:51.180Z,98505.47
2022-11-22T05:33:57.621Z,98492.88
2022-11-22T05:39:01.106Z,98488.50
2022-11-22T05:44:04.519Z,98479.41
2022-11-22T05:49:09.199Z,98474.03
2022-11-22T05:54:12.316Z,98477.91
2022-11-22T05:59:16.212Z,98462.34
2022-11-22T06:04:21.040Z,98451.00
2022-11-22T06:09:24.152Z,98447.19
2022-11-22T06:14:27.529Z,98443.75
2022-11-22T06:19:32.412Z,98440.72
2022-11-22T06:24:35.812Z,98428.56
2022-11-22T06:29:39.019Z,98432.78
2022-11-22T06:34:43.851Z,98436.69
2022-11-22T06:39:46.914Z,98436.19
2022-11-22T06:44:50.235Z,98431.16
2022-11-22T06:49:54.820Z,98411.31
2022-11-22T06:54:58.159Z,98390.59
2022-11-22T07:00:01.609Z,98407.72
2022-11-22T07:05:25.328Z,98397.00
2022-11-22T07:10:29.450Z,98388.44
2022-11-22T07:15:32.688Z,98393.56
2022-11-22T07:20:37.312Z,98389.31
2022-11-22T07:25:40.511Z,98375.13
2022-11-22T07:30:44.657Z,98383.06
2022-11-22T07:35:49.286Z,98378.63
2022-11-22T07:40:52.810Z,98379.97
2022-11-22T07:45:59.971Z,98380.97
2022-11-22T07:51:08.667Z,98380.19
2022-11-22T07:56:12.397Z,98378.63
2022-11-22T08:01:17.896Z,98376.50
2022-11-22T08:06:22.650Z,98374.00
2022-11-22T08:11:25.995Z,98362.31
2022-11-22T08:16:29.304Z,98362.94
2022-11-22T08:21:34.049Z,98364.59
2022-11-22T08:26:37.415Z,98363.66
2022-11-22T08:31:41.287Z,98363.75
2022-11-22T08:36:46.017Z,98363.72
2022-11-22T08:41:49.304Z,98349.56
2022-11-22T08:46:52.514Z,98344.69
2022-11-22T08:51:57.318Z,98343.31
2022-11-22T08:57:00.253Z,98335.34
2022-11-22T09:02:03.624Z,98338.88
2022-11-22T09:12:31.707Z,98319.19
2022-11-22T09:17:35.052Z,98323.66
2022-11-22T09:22:40.145Z,98312.53
2022-11-22T09:27:43.522Z,98295.69
2022-11-22T09:32:46.860Z,98306.53
2022-11-22T09:37:51.933Z,98304.78
2022-11-22T09:43:10.497Z,98306.84
2022-11-22T09:48:31.650Z,98303.88
2022-11-22T09:53:42.341Z,98309.38
2022-11-22T09:58:51.818Z,98312.59
2022-11-22T10:03:59.104Z,98302.50
2022-11-22T10:09:21.565Z,98305.22
2022-11-22T10:14:33.286Z,98292.44
2022-11-22T10:19:40.874Z,98297.22
2022-11-22T10:24:46.385Z,98284.91
2022-11-22T10:29:56.693Z,98276.53
2022-11-22T10:35:20.648Z,98283.56
2022-11-22T10:40:36.905Z,98283.91
2022-11-22T10:45:46.492Z,98264.19
2022-11-22T10:50:59.224Z,98269.63
2022-11-22T10:56:13.092Z,98269.06
2022-11-22T11:01:27.284Z,98256.16
2022-11-22T11:06:56.872Z,98253.50
2022-11-22T11:12:03.671Z,98233.16
2022-11-22T11:17:08.325Z,98240.81
2022-11-22T11:22:31.616Z,98234.50
2022-11-22T11:27:44.051Z,98234.28
2022-11-22T11:32:54.042Z,98232.47
2022-11-22T11:37:57.446Z,98231.56
2022-11-22T11:43:21.427Z,98223.97
2022-11-22T11:48:30.187Z,98235.66
2022-11-22T11:53:33.477Z,98211.81
2022-11-22T11:58:39.252Z,98217.34
2022-11-22T12:03:42.622Z,98226.75
2022-11-22T12:08:46.317Z,98215.03
2022-11-22T12:19:28.843Z,98210.84
2022-11-22T12:25:09.353Z,98207.50
2022-11-22T12:30:06.564Z,98216.13
2022-11-22T12:35:15.129Z,98214.97
2022-11-22T12:40:20.432Z,98215.28
2022-11-22T12:45:30.206Z,98213.81
2022-11-22T12:50:40.630Z,98206.97
2022-11-22T12:55:50.936Z,98195.91
2022-11-22T13:01:06.974Z,98202.66
2022-11-22T13:06:12.114Z,98205.94
2022-11-22T13:11:20.818Z,98191.47
2022-11-22T13:16:25.529Z,98164.28
2022-11-22T13:21:35.653Z,98177.56
2022-11-22T13:26:49.150Z,98179.63
2022-11-22T13:32:06.039Z,98169.72
2022-11-22T13:37:12.909Z,98178.25
2022-11-22T13:42:20.313Z,98153.72
2022-11-22T13:47:42.219Z,98183.00
2022-11-22T13:52:53.369Z,98180.28
2022-11-22T13:57:57.009Z,98196.44
2022-11-22T14:03:24.090Z,98194.75
2022-11-22T14:08:34.669Z,98191.78
2022-11-22T14:13:48.527Z,98181.63
2022-11-22T14:19:04.275Z,98183.38
2022-11-22T14:24:18.123Z,98167.25
2022-11-22T14:30:04.255Z,98176.50
2022-11-22T14:35:35.728Z,98162.19
2022-11-22T14:40:40.378Z,98158.59
2022-11-22T14:45:47.063Z,98153.44
2022-11-22T14:50:56.216Z,98167.94
2022-11-22T14:56:06.077Z,98165.44
2022-11-22T15:01:43.976Z,98179.06
2022-11-22T15:09:16.589Z,98169.00
2022-11-22T15:12:50.952Z,98172.91
2022-11-22T16:01:29.551Z,98164.59
2022-11-22T16:06:33.707Z,98169.03
2022-11-22T16:11:41.124Z,98171.75
2022-11-22T16:16:44.474Z,98175.78
2022-11-22T16:21:57.555Z,98166.50
2022-11-22T16:27:06.152Z,98170.59
2022-11-22T16:32:12.607Z,98159.69
2022-11-22T16:37:28.332Z,98162.13
2022-11-22T16:42:35.655Z,98158.09
2022-11-22T16:47:39.003Z,98151.28
2022-11-22T16:52:42.994Z,98151.34
2022-11-22T16:57:47.993Z,98151.47
2022-11-22T17:02:51.220Z,98146.13
2022-11-22T17:07:54.486Z,98139.25
2022-11-22T17:12:59.251Z,98136.91
2022-11-22T17:18:02.566Z,98143.56
2022-11-22T17:23:10.732Z,98138.47
2022-11-22T17:28:15.880Z,98147.75
2022-11-22T17:33:19.118Z,98137.72
2022-11-22T17:38:22.842Z,98135.28
2022-11-22T17:43:27.914Z,98136.25
2022-11-22T17:48:31.207Z,98146.19
2022-11-22T17:53:34.789Z,98138.47
2022-11-22T17:58:39.836Z,98133.50
2022-11-22T18:03:44.071Z,98150.59
2022-11-22T18:08:47.663Z,98147.22
2022-11-22T18:13:53.038Z,98148.78
2022-11-22T18:18:58.101Z,98156.38
2022-11-22T18:24:02.506Z,98151.31
2022-11-22T18:34:31.551Z,98157.13
2022-11-22T18:39:37.991Z,98156.25
2022-11-22T18:44:43.393Z,98159.00
2022-11-22T18:49:48.153Z,98149.53
2022-11-22T18:54:51.832Z,98156.31
2022-11-22T18:59:56.551Z,98147.69
2022-11-22T19:05:00.075Z,98139.41
2022-11-22T19:10:03.752Z,98142.00
2022-11-22T19:15:10.400Z,98145.50
2022-11-22T19:20:39.093Z,98153.88
2022-11-22T19:25:37.551Z,98150.56
2022-11-22T19:30:44.221Z,98155.06
2022-11-22T19:35:57.146Z,98129.38
2022-11-22T19:41:00.609Z,98132.03
2022-11-22T19:46:06.046Z,98128.66
2022-11-22T19:51:13.911Z,98127.59
2022-11-22T19:56:18.812Z,98138.72
2022-11-22T20:01:24.595Z,98119.13
2022-11-22T20:06:28.721Z,98126.00
2022-11-22T20:11:32.162Z,98131.06
2022-11-22T20:16:41.396Z,98145.50
2022-11-22T20:21:45.088Z,98148.94
2022-11-22T20:26:48.445Z,98147.38
2022-11-22T20:31:53.197Z,98152.53
2022-11-22T20:36:56.861Z,98139.47
2022-11-22T20:42:26.407Z,98152.44
2022-11-22T20:47:24.993Z,98152.59
2022-11-22T20:52:28.576Z,98136.19
2022-11-22T20:57:31.834Z,98143.81
2022-11-22T21:02:36.554Z,98139.78
2022-11-22T21:07:39.815Z,98137.16
2022-11-22T21:12:43.057Z,98132.84
2022-11-22T21:18:17.101Z,98133.53
2022-11-22T21:23:11.520Z,98121.66
2022-11-22T21:28:15.165Z,98126.84
2022-11-22T21:33:19.852Z,98124.25
2022-11-22T21:38:28.235Z,98128.38
2022-11-22T21:43:34.344Z,98126.66
2022-11-22T21:48:39.020Z,98129.38
2022-11-22T21:53:42.205Z,98134.66
2022-11-22T21:58:45.740Z,98132.09
2022-11-22T22:03:50.665Z,98139.88
2022-11-22T22:08:53.616Z,98133.13
2022-11-22T22:13:58.268Z,98127.06
2022-11-22T22:19:08.049Z,98130.53
2022-11-22T22:24:12.775Z,98121.06
2022-11-22T22:29:16.066Z,98112.50
2022-11-22T22:34:20.621Z,98101.47
2022-11-22T22:39:23.788Z,98103.94
2022-11-22T22:44:27.060Z,98101.31
2022-11-22T22:49:31.795Z,98091.06
2022-11-22T22:54:36.096Z,98097.09
2022-11-22T22:59:39.378Z,98084.34
2022-11-22T23:04:43.979Z,98089.28
2022-11-22T23:09:47.240Z,98087.63
2022-11-22T23:14:50.625Z,98073.97
2022-11-22T23:19:55.425Z,98074.97
2022-11-22T23:24:58.774Z,98073.97
2022-11-22T23:30:02.190Z,98085.13
2022-11-22T23:35:08.935Z,98086.03
2022-11-22T23:40:13.659Z,98085.97
2022-11-22T23:45:16.992Z,98083.28
2022-11-22T23:50:21.590Z,98088.47
2022-11-22T23:55:24.831Z,98096.97
